Time;durP1;ratioP1;P1;durP2;ratioP2;P2;SDS_P1;SDS_P2;PMS_P1;PMS_P2;Temp;Humidity;BMP_temperature;BMP_pressure;BME280_temperature;BME280_humidity;BME280_pressure;Samples;Min_cycle;Max_cycle;Signal;HPM_P1;HPM_P2
2021/03/24 00:01:01;;;;;;;;;;;;;;;17.04;59.98;100638.91;5004861;28;1401;-56
2021/03/24 00:03:26;;;;;;;;;;;;;;;17.04;60.22;100639.75;5002910;28;1539;-66
2021/03/24 00:05:52;;;;;;;;;;;;;;;17.03;60.08;100648.75;5003791;28;1315;-56
2021/03/24 00:08:19;;;;;;;;;;;;;;;17.00;61.15;100662.34;5005342;28;1906;-55
2021/03/24 00:10:44;;;;;;;;;;;;;;;16.97;60.36;100651.91;5006161;28;1543;-55
2021/03/24 00:13:10;;;;;;;;;;;;;;;17.01;60.52;100666.72;5010693;28;1300;-66
2021/03/24 00:15:36;;;;;;;;;;;;;;;16.96;61.07;100650.22;5014110;28;1529;-55
2021/03/24 00:18:02;;;;;;;;;;;;;;;16.96;60.14;100652.88;5014296;28;1628;-66
2021/03/24 00:20:30;;;;;;;;;;;;;;;16.97;60.33;100662.59;5013043;28;1482;-56
2021/03/24 00:22:55;;;;;;;;;;;;;;;16.93;60.31;100660.28;5009859;28;1685;-55
2021/03/24 00:25:21;;;;;;;;;;;;;;;16.89;61.04;100663.22;5014921;28;1460;-56
2021/03/24 00:27:47;;;;;;;;;;;;;;;16.95;60.04;100664.56;5011177;28;1514;-66
2021/03/24 00:30:15;;;;;;;;;;;;;;;16.91;59.64;100665.78;5012012;28;1963;-56
2021/03/24 00:32:41;;;;;;;;;;;;;;;16.89;59.68;100659.69;5009132;28;1613;-66
2021/03/24 00:35:07;;;;;;;;;;;;;;;16.87;59.81;100659.81;5013723;28;1529;-66
2021/03/24 00:37:33;;;;;;;;;;;;;;;16.90;60.95;100650.72;5005907;28;1772;-66
2021/03/24 00:39:58;;;;;;;;;;;;;;;16.93;60.69;100661.16;5008872;28;1359;-56
2021/03/24 00:42:24;;;;;;;;;;;;;;;16.89;59.91;100649.00;5017920;28;1272;-55
2021/03/24 00:44:49;;;;;;;;;;;;;;;16.88;59.43;100644.66;5012346;28;1726;-66
2021/03/24 00:47:14;;;;;;;;;;;;;;;16.88;60.08;100668.69;5005527;28;1714;-66
2021/03/24 00:49:40;;;;;;;;;;;;;;;16.87;60.64;100666.97;5014728;28;1953;-66
2021/03/24 00:52:05;;;;;;;;;;;;;;;16.81;60.48;100656.75;5011244;28;1466;-56
2021/03/24 00:54:31;;;;;;;;;;;;;;;16.83;59.13;100661.06;5010504;28;1601;-56
2021/03/24 00:56:56;;;;;;;;;;;;;;;16.83;59.03;100660.19;5013023;28;1311;-65
2021/03/24 00:59:21;;;;;;;;;;;;;;;16.81;59.15;100664.75;5015159;28;1690;-56
2021/03/24 01:01:47;;;;;;;;;;;;;;;16.79;59.14;100674.72;5010496;28;1663;-56
2021/03/24 01:04:12;;;;;;;;;;;;;;;16.76;60.02;100664.31;5010565;28;1550;-56
2021/03/24 01:06:38;;;;;;;;;;;;;;;16.72;60.51;100668.19;5009513;28;1494;-56
2021/03/24 01:09:07;;;;;;;;;;;;;;;16.70;60.57;100677.16;5010311;28;1969;-56
2021/03/24 01:11:33;;;;;;;;;;;;;;;16.76;60.04;100669.66;5018323;28;1569;-56
2021/03/24 01:13:58;;;;;;;;;;;;;;;16.69;60.14;100672.81;5012513;28;1529;-66
2021/03/24 01:16:24;;;;;;;;;;;;;;;16.64;59.54;100664.31;5010774;28;1509;-56
2021/03/24 01:18:49;;;;;;;;;;;;;;;16.72;60.02;100665.53;5009607;28;1587;-66
2021/03/24 01:21:14;;;;;;;;;;;;;;;16.67;60.14;100658.72;5012658;28;1292;-66
2021/03/24 01:23:40;;;;;;;;;;;;;;;16.74;59.94;100653.75;5004171;28;1475;-56
2021/03/24 01:26:05;;;;;;;;;;;;;;;16.66;59.19;100670.38;5006311;28;1346;-56
2021/03/24 01:28:31;;;;;;;;;;;;;;;16.66;59.12;100654.34;5014294;28;1910;-66
2021/03/24 01:30:57;;;;;;;;;;;;;;;16.69;59.01;100662.13;5007213;28;1551;-56
2021/03/24 01:33:23;;;;;;;;;;;;;;;16.70;58.59;100655.81;5006647;28;1407;-66
2021/03/24 01:35:48;;;;;;;;;;;;;;;16.69;59.84;100654.13;5007490;28;1378;-66
2021/03/24 01:38:14;;;;;;;;;;;;;;;16.69;60.10;100664.81;5001187;28;1386;-67
2021/03/24 01:40:41;;;;;;;;;;;;;;;16.63;59.73;100648.41;5005163;28;1355;-66
2021/03/24 01:43:09;;;;;;;;;;;;;;;16.62;58.75;100654.72;5013603;28;1450;-66
2021/03/24 01:45:34;;;;;;;;;;;;;;;16.65;59.68;100650.00;5007536;28;1392;-65
2021/03/24 01:48:01;;;;;;;;;;;;;;;16.64;58.86;100650.97;5009115;28;1961;-67
2021/03/24 01:50:26;;;;;;;;;;;;;;;16.58;60.22;100661.28;5007449;28;1442;-66
2021/03/24 01:52:51;;;;;;;;;;;;;;;16.58;60.06;100667.47;5009040;28;1485;-66
2021/03/24 01:55:17;;;;;;;;;;;;;;;16.63;59.87;100659.94;5007099;28;1738;-66
2021/03/24 01:57:45;;;;;;;;;;;;;;;16.65;59.65;100665.16;5007262;28;1695;-55
2021/03/24 02:00:12;;;;;;;;;;;;;;;16.67;58.18;100666.75;5008747;28;1311;-56
2021/03/24 02:02:37;;;;;;;;;;;;;;;16.65;59.88;100674.03;5007453;28;1446;-66
2021/03/24 02:05:03;;;;;;;;;;;;;;;16.60;59.52;100660.19;5009606;28;1595;-55
2021/03/24 02:07:34;;;;;;;;;;;;;;;16.62;58.71;100668.91;4999699;28;1515;-56
2021/03/24 02:10:07;;;;;;;;;;;;;;;16.62;58.58;100660.06;5010664;28;1965;-66
2021/03/24 02:12:44;;;;;;;;;;;;;;;16.55;58.75;100667.69;5003250;28;1366;-56
2021/03/24 02:15:26;;;;;;;;;;;;;;;16.57;58.48;100675.59;5012745;28;1341;-66
2021/03/24 02:17:52;;;;;;;;;;;;;;;16.54;58.42;100670.50;5009147;28;1392;-66
2021/03/24 02:20:27;;;;;;;;;;;;;;;16.56;58.70;100693.44;5006263;28;1312;-66
2021/03/24 02:22:55;;;;;;;;;;;;;;;16.59;58.79;100687.88;5005567;28;1528;-66
2021/03/24 02:25:56;;;;;;;;;;;;;;;16.60;58.41;100689.56;5007679;28;1785;-66
2021/03/24 02:28:22;;;;;;;;;;;;;;;16.54;59.35;100687.38;4990438;28;1922;-66
2021/03/24 02:30:48;;;;;;;;;;;;;;;16.54;59.30;100692.72;5000569;28;1347;-56
2021/03/24 02:33:16;;;;;;;;;;;;;;;16.51;58.12;100690.28;5004923;28;1289;-55
2021/03/24 02:35:46;;;;;;;;;;;;;;;16.49;58.79;100689.53;4998974;28;1581;-66
2021/03/24 02:38:12;;;;;;;;;;;;;;;16.52;58.41;100683.97;5004129;28;1423;-67
2021/03/24 02:40:39;;;;;;;;;;;;;;;16.50;58.53;100683.25;5006263;28;1312;-66
2021/03/24 02:43:05;;;;;;;;;;;;;;;16.52;58.97;100689.31;4999429;28;1602;-55
2021/03/24 02:45:32;;;;;;;;;;;;;;;16.53;58.62;100701.66;5006741;28;1388;-66
2021/03/24 02:47:59;;;;;;;;;;;;;;;16.49;58.00;100700.22;5006241;28;1423;-67
2021/03/24 02:50:26;;;;;;;;;;;;;;;16.54;59.13;100706.06;5008775;28;2001;-67
2021/03/24 02:52:52;;;;;;;;;;;;;;;16.45;58.76;100706.75;5007572;28;1473;-67
2021/03/24 02:55:18;;;;;;;;;;;;;;;16.47;58.38;100726.19;5006640;28;1797;-67
2021/03/24 02:57:44;;;;;;;;;;;;;;;16.45;58.91;100736.13;4998330;28;1372;-67
2021/03/24 03:02:51;;;;;;;;;;;;;;;16.45;58.93;100729.00;4344553;26;1745;-43
2021/03/24 03:05:18;;;;;;;;;;;;;;;16.39;58.22;100725.94;5026059;28;1631;-43
2021/03/24 03:07:46;;;;;;;;;;;;;;;16.41;57.93;100729.31;5027952;28;1861;-43
2021/03/24 03:12:44;;;;;;;;;;;;;;;16.19;59.06;100741.66;5001731;28;1463;-55
2021/03/24 03:15:16;;;;;;;;;;;;;;;16.11;60.10;100744.06;5007580;28;1320;-55
2021/03/24 03:17:44;;;;;;;;;;;;;;;16.12;60.51;100752.94;5010601;28;1269;-55
2021/03/24 03:20:09;;;;;;;;;;;;;;;16.11;60.43;100752.06;5010448;28;1776;-56
2021/03/24 03:22:43;;;;;;;;;;;;;;;16.07;59.78;100758.59;5007480;28;1509;-56
2021/03/24 03:25:12;;;;;;;;;;;;;;;16.07;61.17;100763.94;5010020;28;1538;-66
2021/03/24 03:27:38;;;;;;;;;;;;;;;16.07;60.21;100786.13;5007695;28;1411;-55
2021/03/24 03:30:05;;;;;;;;;;;;;;;16.08;61.58;100781.66;5007436;28;1910;-56
2021/03/24 03:32:32;;;;;;;;;;;;;;;16.06;60.58;100794.25;5005838;28;1566;-55
2021/03/24 03:34:59;;;;;;;;;;;;;;;16.00;61.42;100792.91;5007906;28;1689;-55
2021/03/24 03:37:26;;;;;;;;;;;;;;;15.99;61.06;100801.00;5005391;28;1514;-66
2021/03/24 03:39:52;;;;;;;;;;;;;;;15.94;62.17;100797.88;5000684;28;1384;-56
2021/03/24 03:42:18;;;;;;;;;;;;;;;15.96;61.23;100806.59;5010166;28;1411;-66
2021/03/24 03:44:43;;;;;;;;;;;;;;;15.94;61.65;100796.03;5003835;28;1405;-66
2021/03/24 03:47:11;;;;;;;;;;;;;;;15.90;61.26;100781.22;5006278;28;1490;-56
2021/03/24 03:49:37;;;;;;;;;;;;;;;15.88;62.64;100792.00;5009340;28;1937;-66
2021/03/24 03:52:21;;;;;;;;;;;;;;;15.89;61.29;100776.84;5006877;28;1404;-66
2021/03/24 03:54:54;;;;;;;;;;;;;;;15.86;61.70;100771.75;5005772;28;1530;-55
2021/03/24 03:57:37;;;;;;;;;;;;;;;15.86;62.48;100769.94;5005964;28;1308;-65
2021/03/24 04:00:12;;;;;;;;;;;;;;;15.85;61.64;100789.56;5010035;28;1638;-59
2021/03/24 04:02:58;;;;;;;;;;;;;;;15.83;61.82;100787.97;5007721;28;1720;-57
2021/03/24 04:05:26;;;;;;;;;;;;;;;15.81;62.30;100785.41;5006908;28;1296;-66
2021/03/24 04:07:57;;;;;;;;;;;;;;;15.83;61.98;100785.31;5006321;28;1466;-55
2021/03/24 04:10:23;;;;;;;;;;;;;;;15.85;63.05;100794.03;5005071;28;1886;-65
2021/03/24 04:12:48;;;;;;;;;;;;;;;15.78;62.92;100785.66;5010910;28;1549;-66
2021/03/24 04:15:16;;;;;;;;;;;;;;;15.77;62.13;100783.94;5004912;28;1323;-66
2021/03/24 04:18:10;;;;;;;;;;;;;;;15.76;62.24;100787.59;5008258;28;1279;-55
2021/03/24 04:20:36;;;;;;;;;;;;;;;15.82;63.98;100791.63;5001226;28;1483;-66
2021/03/24 04:23:05;;;;;;;;;;;;;;;15.88;64.97;100800.00;5008132;28;1342;-49
2021/03/24 04:25:40;;;;;;;;;;;;;;;15.96;66.81;100799.44;5008861;28;1485;-55
2021/03/24 04:28:09;;;;;;;;;;;;;;;15.99;65.83;100798.34;5010104;28;1914;-55
2021/03/24 04:30:37;;;;;;;;;;;;;;;15.99;65.95;100803.69;5006770;28;1338;-56
2021/03/24 04:33:03;;;;;;;;;;;;;;;15.99;65.94;100795.69;5006131;28;1350;-55
2021/03/24 04:35:28;;;;;;;;;;;;;;;15.99;66.13;100799.19;5010523;28;1272;-50
2021/03/24 04:37:56;;;;;;;;;;;;;;;15.97;65.33;100800.28;5010134;28;1489;-55
2021/03/24 04:40:33;;;;;;;;;;;;;;;15.98;64.95;100808.19;5001127;28;1508;-50
2021/03/24 04:43:01;;;;;;;;;;;;;;;15.96;65.08;100812.78;5005220;28;1496;-55
2021/03/24 04:45:26;;;;;;;;;;;;;;;15.92;65.40;100813.97;5001796;28;1376;-55
2021/03/24 04:47:53;;;;;;;;;;;;;;;15.88;64.45;100821.34;5008703;28;1431;-49
2021/03/24 04:50:39;;;;;;;;;;;;;;;15.87;65.15;100830.28;5005873;28;1898;-50
2021/03/24 04:53:05;;;;;;;;;;;;;;;15.86;64.26;100839.28;5010532;28;1915;-55
2021/03/24 04:55:31;;;;;;;;;;;;;;;15.85;64.42;100837.56;5008299;28;1542;-55
2021/03/24 04:57:58;;;;;;;;;;;;;;;15.82;65.62;100837.78;5011415;28;1346;-55
2021/03/24 05:00:32;;;;;;;;;;;;;;;15.79;65.66;100834.50;5009522;28;1232;-55
2021/03/24 05:03:03;;;;;;;;;;;;;;;15.79;64.66;100840.66;5013262;28;1399;-55
2021/03/24 05:05:30;;;;;;;;;;;;;;;15.82;65.29;100845.78;5007527;28;1486;-50
2021/03/24 05:08:09;;;;;;;;;;;;;;;15.79;64.48;100845.16;5008530;28;1526;-49
2021/03/24 05:10:35;;;;;;;;;;;;;;;15.76;64.42;100845.41;5013505;28;1538;-49
2021/03/24 05:13:03;;;;;;;;;;;;;;;15.73;64.24;100851.78;5013150;28;1743;-55
2021/03/24 05:15:31;;;;;;;;;;;;;;;15.71;65.13;100849.19;5013640;28;1527;-49
2021/03/24 05:17:57;;;;;;;;;;;;;;;15.72;64.93;100852.75;5005789;28;1495;-50
2021/03/24 05:20:22;;;;;;;;;;;;;;;15.72;64.75;100855.41;5013978;28;1528;-54
2021/03/24 05:22:48;;;;;;;;;;;;;;;15.71;65.16;100856.34;5003919;28;1708;-50
2021/03/24 05:25:22;;;;;;;;;;;;;;;15.71;64.59;100851.03;5011640;28;1633;-50
2021/03/24 05:27:51;;;;;;;;;;;;;;;15.71;65.16;100859.03;5013339;28;1615;-49
2021/03/24 05:30:23;;;;;;;;;;;;;;;15.70;65.76;100860.00;5007311;28;1914;-54
2021/03/24 05:32:51;;;;;;;;;;;;;;;15.75;65.48;100881.84;5006469;28;1362;-55
2021/03/24 05:35:25;;;;;;;;;;;;;;;15.69;65.58;100879.59;5009740;28;1204;-55
2021/03/24 05:37:50;;;;;;;;;;;;;;;15.71;64.54;100883.00;5007378;28;1724;-50
2021/03/24 05:40:35;;;;;;;;;;;;;;;15.75;64.24;100881.00;5010215;28;1777;-55
2021/03/24 05:43:11;;;;;;;;;;;;;;;15.75;64.31;100887.19;5008941;28;1597;-49
2021/03/24 05:45:46;;;;;;;;;;;;;;;15.80;64.33;100895.72;5026007;28;1608;-55
2021/03/24 05:48:18;;;;;;;;;;;;;;;15.84;64.93;100897.19;5008019;28;1952;-50
2021/03/24 05:50:50;;;;;;;;;;;;;;;15.93;64.90;100900.16;5013111;28;1478;-55
2021/03/24 05:53:34;;;;;;;;;;;;;;;16.03;65.40;100906.50;5010389;28;1342;-49
2021/03/24 05:55:59;;;;;;;;;;;;;;;16.09;65.10;100898.06;5009169;28;1648;-50
2021/03/24 05:58:34;;;;;;;;;;;;;;;16.30;65.62;100909.81;5007427;28;1461;-49
2021/03/24 06:01:11;;;;;;;;;;;;;;;16.90;62.90;100889.28;5007930;28;1771;-53
2021/03/24 06:03:52;;;;;;;;;;;;;;;17.78;61.38;100898.38;5011155;28;1435;-56
2021/03/24 06:06:18;;;;;;;;;;;;;;;18.45;59.53;100896.53;5010684;28;1422;-55
2021/03/24 06:08:46;;;;;;;;;;;;;;;18.89;58.33;100889.25;5007741;28;1894;-55
2021/03/24 06:11:31;;;;;;;;;;;;;;;19.01;57.89;100904.25;5010413;28;1494;-50
2021/03/24 06:14:15;;;;;;;;;;;;;;;18.14;60.29;100912.44;5011773;28;1541;-55
2021/03/24 06:16:56;;;;;;;;;;;;;;;17.53;62.26;100922.72;5006816;28;1341;-50
2021/03/24 06:19:40;;;;;;;;;;;;;;;16.94;62.32;100921.09;5010232;28;1586;-50
2021/03/24 06:22:14;;;;;;;;;;;;;;;16.75;63.42;100927.84;5011196;28;1581;-50
2021/03/24 06:24:58;;;;;;;;;;;;;;;16.62;62.96;100917.22;5009411;28;1539;-58
2021/03/24 06:27:43;;;;;;;;;;;;;;;16.47;63.50;100921.91;5012263;28;1478;-57
2021/03/24 06:30:18;;;;;;;;;;;;;;;16.54;62.65;100927.63;5011339;28;1977;-56
2021/03/24 06:33:01;;;;;;;;;;;;;;;16.78;62.79;100911.56;5012559;28;1377;-56
2021/03/24 06:35:40;;;;;;;;;;;;;;;16.95;62.24;100917.44;5010510;28;1537;-59
2021/03/24 06:38:14;;;;;;;;;;;;;;;17.10;61.61;100919.78;5012139;28;1438;-57
2021/03/24 06:40:46;;;;;;;;;;;;;;;17.27;61.62;100931.84;5013829;28;1510;-59
2021/03/24 06:43:24;;;;;;;;;;;;;;;17.42;61.21;100934.28;5024741;28;1653;-56
2021/03/24 06:46:04;;;;;;;;;;;;;;;17.53;61.59;100931.63;5010200;28;1632;-58
2021/03/24 06:48:48;;;;;;;;;;;;;;;17.64;62.03;100936.09;5011440;28;1914;-56
2021/03/24 06:51:32;;;;;;;;;;;;;;;17.69;60.58;100941.94;5007204;28;1402;-56
2021/03/24 06:53:57;;;;;;;;;;;;;;;17.92;60.19;100936.59;5010826;28;1546;-55
2021/03/24 06:56:41;;;;;;;;;;;;;;;18.12;61.70;100941.16;5013357;28;1654;-55
2021/03/24 06:59:25;;;;;;;;;;;;;;;18.10;60.44;100927.06;5006761;28;1594;-55
2021/03/24 07:02:26;;;;;;;;;;;;;;;18.18;60.46;100934.47;5007320;28;1494;-55
2021/03/24 07:05:12;;;;;;;;;;;;;;;18.26;60.39;100940.91;4952520;28;1703;-55
2021/03/24 07:07:56;;;;;;;;;;;;;;;18.28;60.71;100938.06;4982925;28;1484;-55
2021/03/24 07:10:21;;;;;;;;;;;;;;;18.33;60.97;100945.75;4999687;28;1895;-57
2021/03/24 07:12:58;;;;;;;;;;;;;;;18.43;61.36;100944.84;5009686;28;1787;-54
2021/03/24 07:15:27;;;;;;;;;;;;;;;18.60;60.96;100942.56;5010809;28;1559;-54
2021/03/24 07:18:05;;;;;;;;;;;;;;;18.60;60.98;100935.41;5002563;28;1458;-52
2021/03/24 07:20:33;;;;;;;;;;;;;;;18.52;61.04;100951.25;5010833;28;1728;-54
2021/03/24 07:23:10;;;;;;;;;;;;;;;18.46;61.37;100963.34;5008419;28;1229;-56
2021/03/24 07:25:46;;;;;;;;;;;;;;;18.53;61.24;100968.19;5010976;28;1588;-53
2021/03/24 07:28:30;;;;;;;;;;;;;;;18.71;60.29;100979.19;5010292;28;1914;-56
2021/03/24 07:30:58;;;;;;;;;;;;;;;18.80;60.37;100960.56;5010060;28;1376;-56
2021/03/24 07:33:24;;;;;;;;;;;;;;;18.99;59.59;100965.19;5010244;28;1680;-52
2021/03/24 07:36:07;;;;;;;;;;;;;;;19.05;59.61;100959.31;5003558;28;1414;-50
2021/03/24 07:38:32;;;;;;;;;;;;;;;19.12;59.34;100974.84;5008096;28;1244;-51
2021/03/24 07:41:06;;;;;;;;;;;;;;;19.08;59.54;100964.41;5003936;28;821;-54
2021/03/24 07:43:49;;;;;;;;;;;;;;;19.02;59.63;100962.25;5009929;28;1465;-55
2021/03/24 07:46:35;;;;;;;;;;;;;;;18.93;59.75;100956.84;5003250;28;1695;-53
2021/03/24 07:49:12;;;;;;;;;;;;;;;18.76;59.50;100979.66;5001363;28;1874;-55
2021/03/24 07:51:41;;;;;;;;;;;;;;;18.67;60.62;100982.13;5008581;28;1521;-55
2021/03/24 07:54:09;;;;;;;;;;;;;;;18.71;60.75;100961.28;5012311;28;1757;-54
2021/03/24 07:56:42;;;;;;;;;;;;;;;18.84;60.32;100977.19;4999298;28;1705;-54
2021/03/24 07:59:11;;;;;;;;;;;;;;;18.86;60.39;100980.59;5009838;28;1474;-54
2021/03/24 08:01:55;;;;;;;;;;;;;;;18.71;60.52;100988.06;5009766;28;1498;-54
2021/03/24 08:04:36;;;;;;;;;;;;;;;18.56;60.04;100984.84;5008793;28;1511;-55
2021/03/24 08:07:01;;;;;;;;;;;;;;;18.49;58.71;100995.22;5009198;28;1315;-55
2021/03/24 08:09:29;;;;;;;;;;;;;;;18.48;57.99;100973.91;5007572;28;1957;-54
2021/03/24 08:12:17;;;;;;;;;;;;;;;18.38;58.29;100978.31;5009924;28;1446;-55
2021/03/24 08:14:45;;;;;;;;;;;;;;;18.44;58.62;100985.84;5009059;28;2212;-57
2021/03/24 08:17:24;;;;;;;;;;;;;;;18.48;58.80;100976.59;5011358;28;1342;-55
2021/03/24 08:20:12;;;;;;;;;;;;;;;18.46;58.23;100979.41;5003915;28;1652;-55
2021/03/24 08:22:52;;;;;;;;;;;;;;;18.50;58.83;100977.31;5009426;28;1701;-55
2021/03/24 08:25:30;;;;;;;;;;;;;;;18.45;59.28;100983.06;5004481;28;1491;-55
2021/03/24 08:27:55;;;;;;;;;;;;;;;18.56;58.95;100989.34;5010642;28;1621;-53
2021/03/24 08:30:41;;;;;;;;;;;;;;;18.55;59.10;100988.50;5009657;28;1910;-51
2021/03/24 08:33:12;;;;;;;;;;;;;;;18.52;58.84;100967.31;5009798;28;1394;-55
2021/03/24 08:36:10;;;;;;;;;;;;;;;18.19;58.81;100936.16;5005901;28;1239;-54
2021/03/24 08:38:41;;;;;;;;;;;;;;;18.55;59.31;100977.78;5001608;28;1487;-54
2021/03/24 08:41:21;;;;;;;;;;;;;;;18.56;58.65;100971.47;5012106;28;1502;-55
2021/03/24 08:43:46;;;;;;;;;;;;;;;18.48;59.30;100973.91;5010878;28;1284;-56
2021/03/24 08:46:38;;;;;;;;;;;;;;;18.43;58.52;100971.63;5013218;28;1419;-53
2021/03/24 08:49:12;;;;;;;;;;;;;;;18.42;59.53;100985.13;5007553;28;1889;-55
2021/03/24 08:51:43;;;;;;;;;;;;;;;18.40;59.00;100974.56;5008832;28;1558;-55
2021/03/24 08:54:28;;;;;;;;;;;;;;;18.48;59.14;100976.59;5013344;28;1582;-55
2021/03/24 08:57:05;;;;;;;;;;;;;;;18.48;58.90;100988.16;5013500;28;1473;-54
2021/03/24 08:59:40;;;;;;;;;;;;;;;18.39;59.15;100983.56;5010228;28;1745;-54
2021/03/24 09:02:24;;;;;;;;;;;;;;;18.36;59.18;100965.06;5001702;28;1494;-54
2021/03/24 09:05:08;;;;;;;;;;;;;;;18.39;59.34;100967.50;5016817;28;1728;-49
2021/03/24 09:07:41;;;;;;;;;;;;;;;18.39;59.16;100962.13;5009291;28;1437;-55
2021/03/24 09:10:27;;;;;;;;;;;;;;;18.36;59.21;100966.88;5004525;28;1961;-55
2021/03/24 09:13:00;;;;;;;;;;;;;;;18.35;59.44;100968.72;5003355;28;1821;-55
2021/03/24 09:15:32;;;;;;;;;;;;;;;18.37;59.05;100982.84;5005978;28;1387;-55
2021/03/24 09:18:16;;;;;;;;;;;;;;;18.33;59.21;100967.16;5012121;28;1391;-51
2021/03/24 09:20:45;;;;;;;;;;;;;;;18.33;58.75;100972.50;5011682;28;1367;-50
2021/03/24 09:23:29;;;;;;;;;;;;;;;18.28;58.85;100965.72;5011691;28;1383;-49
2021/03/24 09:26:13;;;;;;;;;;;;;;;18.25;59.24;100975.81;5011158;28;1548;-49
2021/03/24 09:28:41;;;;;;;;;;;;;;;18.24;59.14;100976.78;5012639;28;2011;-53
2021/03/24 09:31:30;;;;;;;;;;;;;;;18.24;58.26;100980.31;5013741;28;1613;-54
2021/03/24 09:34:02;;;;;;;;;;;;;;;18.24;58.70;100990.16;5013138;28;1559;-53
2021/03/24 09:36:28;;;;;;;;;;;;;;;17.88;59.06;101000.19;5011663;28;1449;-53
2021/03/24 09:38:54;;;;;;;;;;;;;;;18.04;58.35;100991.78;5008535;28;1394;-51
2021/03/24 09:41:27;;;;;;;;;;;;;;;18.03;58.94;100990.94;5013798;28;1507;-53
2021/03/24 09:44:08;;;;;;;;;;;;;;;18.06;58.52;101008.56;5009651;28;1673;-54
2021/03/24 09:46:33;;;;;;;;;;;;;;;18.13;58.64;101009.78;5008480;28;1553;-54
2021/03/24 09:49:00;;;;;;;;;;;;;;;18.18;58.20;100999.53;5012377;28;1969;-50
2021/03/24 09:51:33;;;;;;;;;;;;;;;18.21;58.90;101007.34;5013219;28;1539;-52
2021/03/24 09:54:06;;;;;;;;;;;;;;;18.23;58.71;100997.34;5013512;28;1565;-52
2021/03/24 09:56:31;;;;;;;;;;;;;;;18.23;58.51;101000.03;5005721;28;785;-53
2021/03/24 09:59:32;;;;;;;;;;;;;;;18.23;59.34;100997.34;5004101;28;1482;-53
2021/03/24 10:02:01;;;;;;;;;;;;;;;18.22;58.58;100997.47;4983998;28;1443;-52
2021/03/24 10:04:40;;;;;;;;;;;;;;;18.18;59.07;101006.72;5000214;28;1462;-53
2021/03/24 10:07:13;;;;;;;;;;;;;;;18.15;59.93;101007.00;5008169;28;1533;-53
2021/03/24 10:09:42;;;;;;;;;;;;;;;18.16;59.76;101009.50;5005171;28;1974;-53
2021/03/24 10:12:16;;;;;;;;;;;;;;;18.10;60.01;101020.72;5014009;28;1656;-53
2021/03/24 10:14:44;;;;;;;;;;;;;;;18.12;59.81;101026.81;5009117;28;1693;-53
2021/03/24 10:17:31;;;;;;;;;;;;;;;18.07;59.76;101026.34;5013424;28;1482;-53
2021/03/24 10:20:17;;;;;;;;;;;;;;;18.02;60.32;101049.94;5010011;28;1673;-53
2021/03/24 10:22:49;;;;;;;;;;;;;;;17.99;60.62;101050.19;5009497;28;1748;-53
2021/03/24 10:25:26;;;;;;;;;;;;;;;17.96;60.45;101040.56;5001748;28;1584;-52
2021/03/24 10:27:54;;;;;;;;;;;;;;;17.96;59.74;101023.66;5001132;28;1540;-53
2021/03/24 10:30:34;;;;;;;;;;;;;;;17.92;60.13;101032.91;5012113;28;1910;-53
2021/03/24 10:33:19;;;;;;;;;;;;;;;17.88;60.63;101027.78;5009610;28;1447;-53
2021/03/24 10:35:46;;;;;;;;;;;;;;;17.89;60.20;101031.34;5003994;28;1418;-54
2021/03/24 10:38:30;;;;;;;;;;;;;;;17.92;60.52;101038.25;5010744;28;1327;-54
2021/03/24 10:41:02;;;;;;;;;;;;;;;17.92;61.12;101014.19;5009837;28;772;-52
2021/03/24 10:43:29;;;;;;;;;;;;;;;17.95;60.44;101005.91;5013184;28;1656;-53
2021/03/24 10:46:05;;;;;;;;;;;;;;;17.96;59.88;101002.25;5011781;28;1272;-53
2021/03/24 10:48:33;;;;;;;;;;;;;;;18.07;59.92;101002.25;5011585;28;1935;-53
2021/03/24 10:51:08;;;;;;;;;;;;;;;18.18;59.48;100990.66;5012843;28;1622;-53
2021/03/24 10:53:35;;;;;;;;;;;;;;;18.13;59.41;100974.16;5012687;28;1528;-53
2021/03/24 10:56:19;;;;;;;;;;;;;;;18.15;59.79;100986.41;5013817;28;1428;-54
2021/03/24 10:58:53;;;;;;;;;;;;;;;18.18;59.28;100996.84;5007498;28;1387;-54
2021/03/24 11:01:24;;;;;;;;;;;;;;;18.15;60.07;100991.78;5011402;28;1575;-54
2021/03/24 11:03:55;;;;;;;;;;;;;;;18.23;59.63;100992.00;5007553;28;1454;-54
2021/03/24 11:06:30;;;;;;;;;;;;;;;18.40;59.05;101000.47;5007349;28;1493;-54
2021/03/24 11:09:16;;;;;;;;;;;;;;;18.41;59.18;101013.75;5008427;28;1961;-56
2021/03/24 11:11:41;;;;;;;;;;;;;;;18.46;58.78;101024.06;5005016;28;1656;-54
2021/03/24 11:14:19;;;;;;;;;;;;;;;18.44;59.47;101016.19;5011207;28;1551;-53
2021/03/24 11:16:56;;;;;;;;;;;;;;;18.50;58.97;101025.50;5009431;28;1545;-54
2021/03/24 11:19:28;;;;;;;;;;;;;;;18.43;59.05;101016.28;5010107;28;1588;-54
2021/03/24 11:22:12;;;;;;;;;;;;;;;18.43;59.00;101021.66;5012738;28;1477;-54
2021/03/24 11:24:56;;;;;;;;;;;;;;;18.35;59.62;101037.50;5010044;28;1592;-59
2021/03/24 11:27:36;;;;;;;;;;;;;;;18.31;59.33;101036.88;5007283;28;1315;-53
2021/03/24 11:30:07;;;;;;;;;;;;;;;18.22;59.83;101035.81;5014092;28;1914;-54
2021/03/24 11:32:39;;;;;;;;;;;;;;;18.20;60.07;101037.75;5007386;28;1692;-53
2021/03/24 11:35:13;;;;;;;;;;;;;;;18.17;60.14;101027.28;5008453;28;1537;-53
2021/03/24 11:37:50;;;;;;;;;;;;;;;18.14;60.55;101022.16;5002844;28;1545;-54
2021/03/24 11:40:19;;;;;;;;;;;;;;;18.11;60.32;101033.16;5005645;28;1458;-53
2021/03/24 11:42:51;;;;;;;;;;;;;;;18.09;59.71;101051.16;4996173;28;1466;-54
2021/03/24 11:45:18;;;;;;;;;;;;;;;18.10;59.87;101036.78;5008658;28;1530;-54
2021/03/24 11:48:00;;;;;;;;;;;;;;;18.11;59.82;101033.16;5010227;28;1381;-53
2021/03/24 11:50:35;;;;;;;;;;;;;;;18.06;60.12;101022.81;5009872;28;1883;-53
2021/03/24 11:53:06;;;;;;;;;;;;;;;18.09;60.04;101032.41;5009239;28;1315;-53
2021/03/24 11:55:40;;;;;;;;;;;;;;;18.06;59.72;101013.91;5009565;28;1437;-54
2021/03/24 11:58:22;;;;;;;;;;;;;;;18.08;59.24;101011.97;5011950;28;1509;-54
2021/03/24 12:01:05;;;;;;;;;;;;;;;18.08;59.29;101020.88;5010185;28;1424;-54
2021/03/24 12:03:39;;;;;;;;;;;;;;;18.12;59.49;101018.78;5011915;28;1358;-54
2021/03/24 12:06:15;;;;;;;;;;;;;;;18.14;59.85;101007.94;5001944;28;1358;-53
2021/03/24 12:08:43;;;;;;;;;;;;;;;18.16;59.77;101019.38;5005670;28;1957;-54
2021/03/24 12:11:11;;;;;;;;;;;;;;;18.16;59.31;100997.97;5010555;28;1307;-52
2021/03/24 12:13:37;;;;;;;;;;;;;;;18.13;59.25;101009.78;5011075;28;1569;-53
2021/03/24 12:16:06;;;;;;;;;;;;;;;18.17;58.68;101003.19;5010387;28;1572;-54
2021/03/24 12:18:40;;;;;;;;;;;;;;;18.16;59.44;101004.16;5013900;28;1287;-53
2021/03/24 12:21:06;;;;;;;;;;;;;;;18.18;58.87;100986.16;5007931;28;1580;-54
2021/03/24 12:23:36;;;;;;;;;;;;;;;18.19;58.96;100998.56;5012359;28;1422;-53
2021/03/24 12:26:02;;;;;;;;;;;;;;;18.24;59.19;100988.34;5010216;28;1457;-53
2021/03/24 12:28:31;;;;;;;;;;;;;;;18.34;59.62;100998.28;5013755;28;1969;-54
2021/03/24 12:31:10;;;;;;;;;;;;;;;18.43;59.21;100992.19;5011376;28;1493;-54
2021/03/24 12:33:38;;;;;;;;;;;;;;;18.45;59.15;100999.13;5010067;28;1736;-54
2021/03/24 12:36:12;;;;;;;;;;;;;;;18.43;59.19;100994.88;5010801;28;1473;-53
2021/03/24 12:38:43;;;;;;;;;;;;;;;18.41;58.95;101000.34;5010278;28;1383;-53
2021/03/24 12:41:08;;;;;;;;;;;;;;;18.42;59.72;100987.81;5010480;28;1895;-53
2021/03/24 12:43:35;;;;;;;;;;;;;;;18.42;59.21;100979.78;5011756;28;1588;-55
2021/03/24 12:46:06;;;;;;;;;;;;;;;18.39;59.54;100975.53;5009520;28;1575;-53
2021/03/24 12:48:34;;;;;;;;;;;;;;;18.44;59.07;100959.06;5010670;28;1890;-49
2021/03/24 12:51:07;;;;;;;;;;;;;;;18.44;59.28;100954.59;5009781;28;1592;-48
2021/03/24 12:53:39;;;;;;;;;;;;;;;18.44;59.95;100945.69;5009415;28;1415;-48
2021/03/24 12:56:25;;;;;;;;;;;;;;;18.47;59.49;100945.44;5008373;28;1502;-49
2021/03/24 12:58:53;;;;;;;;;;;;;;;18.47;59.80;100950.78;5002032;28;1860;-50
2021/03/24 13:01:33;;;;;;;;;;;;;;;18.44;59.75;100959.06;5004003;28;1480;-50
2021/03/24 13:04:06;;;;;;;;;;;;;;;18.43;59.87;100968.09;5004994;28;1314;-48
2021/03/24 13:06:47;;;;;;;;;;;;;;;18.39;59.88;100961.31;5011589;28;1466;-48
2021/03/24 13:09:30;;;;;;;;;;;;;;;18.34;60.16;100974.19;5007550;28;1894;-53
2021/03/24 13:12:10;;;;;;;;;;;;;;;18.31;60.12;100967.28;5011628;28;1473;-54
2021/03/24 13:14:45;;;;;;;;;;;;;;;18.28;60.46;100971.06;5003922;28;1720;-48
2021/03/24 13:17:19;;;;;;;;;;;;;;;18.28;60.12;100970.19;5008926;28;1460;-55
2021/03/24 13:20:12;;;;;;;;;;;;;;;18.28;60.44;100981.78;5010767;28;1401;-53